RHP weather

Western Carolina Regional Airport
Andrews, North Carolina, United States

Public forecast

Using degrees Fahrenheit for public forecast. Weather courtesy of forecast.io.

METAR (pilot weather report)

Retrieved 2019/08/20 02:35 UTC (0 seconds ago):

KRHP 200235Z AUTO 00000KT 10SM CLR 20/20 A3018 RMK AO2 T01950195

TAF (pilot weather forecast)

Forecast is more than 12 hours old.

Closest forecast is McGhee Tyson Airport, 37.5 nm (69.5 km) N. Retrieved 2019/08/19 00:22 UTC (1 day ago):

TAF KTYS 192320Z 2000/2024 14007KT P6SM VCSH SCT060 SCT120 FM200100 VRB03KT P6SM FEW250 FM201600 34004KT P6SM SCT060